sensor_id;sensor_type;location;lat;lon;timestamp;pressure;altitude;pressure_sealevel;temperature;humidity
74594;BME280;63097;51.872;4.460;2023-04-03T00:00:27;103227.25;;;4.68;70.67
74594;BME280;63097;51.872;4.460;2023-04-03T00:02:53;103227.72;;;4.64;70.73
74594;BME280;63097;51.872;4.460;2023-04-03T00:05:18;103231.34;;;4.64;70.78
74594;BME280;63097;51.872;4.460;2023-04-03T00:07:43;103234.09;;;4.64;70.60
74594;BME280;63097;51.872;4.460;2023-04-03T00:10:09;103226.06;;;4.53;71.26
74594;BME280;63097;51.872;4.460;2023-04-03T00:12:34;103231.34;;;4.47;71.40
74594;BME280;63097;51.872;4.460;2023-04-03T00:15:00;103233.59;;;4.51;71.46
74594;BME280;63097;51.872;4.460;2023-04-03T00:17:25;103229.47;;;4.38;71.79
74594;BME280;63097;51.872;4.460;2023-04-03T00:19:50;103231.06;;;4.40;71.41
74594;BME280;63097;51.872;4.460;2023-04-03T00:22:16;103235.63;;;4.32;71.90
74594;BME280;63097;51.872;4.460;2023-04-03T00:24:41;103235.66;;;4.22;72.58
74594;BME280;63097;51.872;4.460;2023-04-03T00:27:06;103234.94;;;4.20;72.40
74594;BME280;63097;51.872;4.460;2023-04-03T00:29:32;103229.91;;;4.16;72.80
74594;BME280;63097;51.872;4.460;2023-04-03T00:31:57;103231.66;;;4.17;72.96
74594;BME280;63097;51.872;4.460;2023-04-03T00:34:22;103237.50;;;4.31;71.85
74594;BME280;63097;51.872;4.460;2023-04-03T00:36:48;103231.03;;;4.23;72.39
74594;BME280;63097;51.872;4.460;2023-04-03T00:39:13;103234.25;;;4.18;72.32
74594;BME280;63097;51.872;4.460;2023-04-03T00:41:38;103234.84;;;4.12;71.98
74594;BME280;63097;51.872;4.460;2023-04-03T00:47:12;103233.47;;;3.98;73.00
74594;BME280;63097;51.872;4.460;2023-04-03T00:49:38;103240.56;;;4.01;72.10
74594;BME280;63097;51.872;4.460;2023-04-03T00:52:05;103233.72;;;4.05;72.13
74594;BME280;63097;51.872;4.460;2023-04-03T00:54:35;103239.50;;;4.12;71.50
74594;BME280;63097;51.872;4.460;2023-04-03T00:57:01;103236.91;;;4.10;71.65
74594;BME280;63097;51.872;4.460;2023-04-03T00:59:33;103233.31;;;4.00;72.10
74594;BME280;63097;51.872;4.460;2023-04-03T01:02:00;103242.91;;;3.96;72.04
74594;BME280;63097;51.872;4.460;2023-04-03T01:06:56;103239.50;;;3.75;72.56
74594;BME280;63097;51.872;4.460;2023-04-03T01:09:23;103248.22;;;3.70;72.69
74594;BME280;63097;51.872;4.460;2023-04-03T01:11:48;103243.16;;;3.66;73.04
74594;BME280;63097;51.872;4.460;2023-04-03T01:14:13;103241.84;;;3.70;72.87
74594;BME280;63097;51.872;4.460;2023-04-03T01:16:39;103246.09;;;3.55;73.49
74594;BME280;63097;51.872;4.460;2023-04-03T01:19:08;103249.13;;;3.52;73.81
74594;BME280;63097;51.872;4.460;2023-04-03T01:21:54;103251.59;;;3.64;73.23
74594;BME280;63097;51.872;4.460;2023-04-03T01:24:22;103264.31;;;3.56;73.70
74594;BME280;63097;51.872;4.460;2023-04-03T01:26:51;103259.53;;;3.58;73.55
74594;BME280;63097;51.872;4.460;2023-04-03T01:29:17;103260.28;;;3.60;73.40
74594;BME280;63097;51.872;4.460;2023-04-03T01:31:50;103255.06;;;3.57;73.31
74594;BME280;63097;51.872;4.460;2023-04-03T01:34:15;103246.69;;;3.49;73.69
74594;BME280;63097;51.872;4.460;2023-04-03T01:36:41;103253.22;;;3.48;74.02
74594;BME280;63097;51.872;4.460;2023-04-03T01:39:06;103251.19;;;3.40;74.05
74594;BME280;63097;51.872;4.460;2023-04-03T01:41:32;103266.69;;;3.41;73.81
74594;BME280;63097;51.872;4.460;2023-04-03T01:43:57;103255.66;;;3.41;74.09
74594;BME280;63097;51.872;4.460;2023-04-03T01:46:23;103255.41;;;3.35;73.98
74594;BME280;63097;51.872;4.460;2023-04-03T01:48:48;103252.81;;;3.24;74.89
74594;BME280;63097;51.872;4.460;2023-04-03T01:51:14;103257.44;;;3.23;74.77
74594;BME280;63097;51.872;4.460;2023-04-03T01:53:39;103255.56;;;3.14;74.93
74594;BME280;63097;51.872;4.460;2023-04-03T01:56:05;103260.91;;;3.16;75.14
74594;BME280;63097;51.872;4.460;2023-04-03T01:58:30;103257.91;;;3.19;75.45
74594;BME280;63097;51.872;4.460;2023-04-03T02:00:56;103263.97;;;3.13;75.10
74594;BME280;63097;51.872;4.460;2023-04-03T02:03:21;103262.38;;;3.10;74.86
74594;BME280;63097;51.872;4.460;2023-04-03T02:05:46;103260.19;;;3.14;74.94
74594;BME280;63097;51.872;4.460;2023-04-03T02:08:12;103264.41;;;3.18;75.27
74594;BME280;63097;51.872;4.460;2023-04-03T02:10:37;103251.09;;;3.13;74.49
74594;BME280;63097;51.872;4.460;2023-04-03T02:13:02;103257.44;;;3.04;75.00
74594;BME280;63097;51.872;4.460;2023-04-03T02:15:28;103255.72;;;3.03;75.10
74594;BME280;63097;51.872;4.460;2023-04-03T02:17:53;103260.63;;;2.99;75.51
74594;BME280;63097;51.872;4.460;2023-04-03T02:20:19;103273.50;;;2.89;75.80
74594;BME280;63097;51.872;4.460;2023-04-03T02:22:44;103276.41;;;2.88;76.44
74594;BME280;63097;51.872;4.460;2023-04-03T02:25:10;103266.56;;;2.95;76.18
74594;BME280;63097;51.872;4.460;2023-04-03T02:27:35;103275.53;;;2.97;76.17
74594;BME280;63097;51.872;4.460;2023-04-03T02:30:01;103275.53;;;2.97;76.67
74594;BME280;63097;51.872;4.460;2023-04-03T02:32:26;103282.91;;;2.87;76.45
74594;BME280;63097;51.872;4.460;2023-04-03T02:34:51;103283.91;;;2.86;76.52
74594;BME280;63097;51.872;4.460;2023-04-03T02:37:17;103289.44;;;2.76;77.02
74594;BME280;63097;51.872;4.460;2023-04-03T02:39:42;103282.03;;;2.77;77.26
74594;BME280;63097;51.872;4.460;2023-04-03T02:42:07;103282.31;;;2.74;76.96
74594;BME280;63097;51.872;4.460;2023-04-03T02:44:33;103287.22;;;2.61;77.45
74594;BME280;63097;51.872;4.460;2023-04-03T02:46:58;103289.97;;;2.61;77.74
74594;BME280;63097;51.872;4.460;2023-04-03T02:49:23;103289.69;;;2.54;78.20
74594;BME280;63097;51.872;4.460;2023-04-03T02:51:49;103284.88;;;2.47;78.25
74594;BME280;63097;51.872;4.460;2023-04-03T02:54:14;103276.63;;;2.47;78.70
74594;BME280;63097;51.872;4.460;2023-04-03T02:56:39;103284.41;;;2.32;79.58
74594;BME280;63097;51.872;4.460;2023-04-03T02:59:05;103286.19;;;2.52;78.84
74594;BME280;63097;51.872;4.460;2023-04-03T03:01:30;103289.22;;;2.49;78.57
74594;BME280;63097;51.872;4.460;2023-04-03T03:03:56;103288.47;;;2.47;78.95
74594;BME280;63097;51.872;4.460;2023-04-03T03:06:21;103285.28;;;2.42;79.75
74594;BME280;63097;51.872;4.460;2023-04-03T03:08:46;103284.41;;;2.32;79.51
74594;BME280;63097;51.872;4.460;2023-04-03T03:11:12;103282.94;;;2.28;79.74
74594;BME280;63097;51.872;4.460;2023-04-03T03:13:37;103286.16;;;2.43;79.75
74594;BME280;63097;51.872;4.460;2023-04-03T03:16:03;103275.00;;;2.25;79.68
74594;BME280;63097;51.872;4.460;2023-04-03T03:18:29;103292.50;;;2.34;80.26
74594;BME280;63097;51.872;4.460;2023-04-03T03:20:59;103293.06;;;2.28;80.31
74594;BME280;63097;51.872;4.460;2023-04-03T03:23:26;103293.34;;;2.25;80.55
74594;BME280;63097;51.872;4.460;2023-04-03T03:26:00;103301.00;;;2.21;80.79
74594;BME280;63097;51.872;4.460;2023-04-03T03:28:26;103288.59;;;2.27;80.57
74594;BME280;63097;51.872;4.460;2023-04-03T03:30:51;103291.47;;;2.25;80.70
74594;BME280;63097;51.872;4.460;2023-04-03T03:33:17;103295.06;;;2.26;80.63
74594;BME280;63097;51.872;4.460;2023-04-03T03:35:43;103295.91;;;2.17;81.10
74594;BME280;63097;51.872;4.460;2023-04-03T03:38:08;103301.25;;;2.18;81.54
74594;BME280;63097;51.872;4.460;2023-04-03T03:40:34;103293.31;;;2.15;80.98
74594;BME280;63097;51.872;4.460;2023-04-03T03:42:59;103295.66;;;2.20;81.22
74594;BME280;63097;51.872;4.460;2023-04-03T03:45:24;103301.53;;;2.15;80.95
74594;BME280;63097;51.872;4.460;2023-04-03T03:47:50;103307.47;;;2.11;81.51
74594;BME280;63097;51.872;4.460;2023-04-03T03:50:15;103306.00;;;2.07;81.51
74594;BME280;63097;51.872;4.460;2023-04-03T03:52:40;103311.16;;;2.00;82.19
74594;BME280;63097;51.872;4.460;2023-04-03T03:55:06;103314.69;;;2.12;82.20
74594;BME280;63097;51.872;4.460;2023-04-03T03:57:31;103311.66;;;2.15;81.58
74594;BME280;63097;51.872;4.460;2023-04-03T03:59:57;103303.16;;;2.18;81.38
74594;BME280;63097;51.872;4.460;2023-04-03T04:02:22;103307.91;;;2.16;81.90
74594;BME280;63097;51.872;4.460;2023-04-03T04:04:48;103310.91;;;2.13;81.72
74594;BME280;63097;51.872;4.460;2023-04-03T04:07:13;103312.31;;;2.07;82.08
74594;BME280;63097;51.872;4.460;2023-04-03T04:09:39;103319.84;;;2.05;82.40
74594;BME280;63097;51.872;4.460;2023-04-03T04:12:04;103316.50;;;2.01;82.15
74594;BME280;63097;51.872;4.460;2023-04-03T04:14:29;103317.00;;;1.86;83.13
74594;BME280;63097;51.872;4.460;2023-04-03T04:16:55;103318.94;;;1.95;83.27
74594;BME280;63097;51.872;4.460;2023-04-03T04:19:20;103317.19;;;1.94;83.28
74594;BME280;63097;51.872;4.460;2023-04-03T04:21:45;103314.47;;;2.03;83.18
74594;BME280;63097;51.872;4.460;2023-04-03T04:24:11;103316.78;;;1.98;82.91
74594;BME280;63097;51.872;4.460;2023-04-03T04:26:36;103320.94;;;1.93;83.58
74594;BME280;63097;51.872;4.460;2023-04-03T04:29:01;103318.47;;;1.90;83.47
74594;BME280;63097;51.872;4.460;2023-04-03T04:31:27;103323.50;;;1.85;83.84
74594;BME280;63097;51.872;4.460;2023-04-03T04:33:52;103319.16;;;1.82;83.85
74594;BME280;63097;51.872;4.460;2023-04-03T04:36:18;103319.28;;;1.81;84.35
74594;BME280;63097;51.872;4.460;2023-04-03T04:38:44;103322.50;;;1.86;83.69
74594;BME280;63097;51.872;4.460;2023-04-03T04:41:09;103321.75;;;1.84;83.94
74594;BME280;63097;51.872;4.460;2023-04-03T04:43:34;103325.53;;;1.83;84.25
74594;BME280;63097;51.872;4.460;2023-04-03T04:46:05;103326.78;;;1.79;84.07
74594;BME280;63097;51.872;4.460;2023-04-03T04:48:30;103334.56;;;1.74;84.27
74594;BME280;63097;51.872;4.460;2023-04-03T04:50:56;103329.19;;;1.72;84.52
74594;BME280;63097;51.872;4.460;2023-04-03T04:53:22;103334.16;;;1.78;84.57
74594;BME280;63097;51.872;4.460;2023-04-03T04:55:47;103337.91;;;1.77;84.42
74594;BME280;63097;51.872;4.460;2023-04-03T04:58:12;103335.34;;;1.85;84.38
74594;BME280;63097;51.872;4.460;2023-04-03T05:00:37;103340.75;;;1.76;84.53
74594;BME280;63097;51.872;4.460;2023-04-03T05:03:03;103339.50;;;1.80;84.60
74594;BME280;63097;51.872;4.460;2023-04-03T05:05:28;103347.13;;;1.76;84.86
74594;BME280;63097;51.872;4.460;2023-04-03T05:07:53;103349.72;;;1.78;85.00
74594;BME280;63097;51.872;4.460;2023-04-03T05:10:19;103345.41;;;1.75;84.68
74594;BME280;63097;51.872;4.460;2023-04-03T05:12:44;103345.06;;;1.69;85.29
74594;BME280;63097;51.872;4.460;2023-04-03T05:15:10;103344.25;;;1.78;84.95
74594;BME280;63097;51.872;4.460;2023-04-03T05:17:35;103341.97;;;1.83;84.75
74594;BME280;63097;51.872;4.460;2023-04-03T05:20:01;103348.75;;;1.79;85.21
74594;BME280;63097;51.872;4.460;2023-04-03T05:22:26;103346.97;;;1.78;84.60
74594;BME280;63097;51.872;4.460;2023-04-03T05:24:52;103338.06;;;1.85;84.54
74594;BME280;63097;51.872;4.460;2023-04-03T05:27:17;103345.19;;;1.88;84.96
74594;BME280;63097;51.872;4.460;2023-04-03T05:29:42;103348.22;;;1.85;85.09
74594;BME280;63097;51.872;4.460;2023-04-03T05:32:08;103346.88;;;1.79;85.22
74594;BME280;63097;51.872;4.460;2023-04-03T05:34:33;103337.63;;;1.80;85.12
74594;BME280;63097;51.872;4.460;2023-04-03T05:36:58;103350.66;;;1.88;84.94
74594;BME280;63097;51.872;4.460;2023-04-03T05:39:23;103351.19;;;1.82;85.29
74594;BME280;63097;51.872;4.460;2023-04-03T05:41:49;103345.72;;;1.82;85.35
74594;BME280;63097;51.872;4.460;2023-04-03T05:44:14;103355.88;;;1.91;85.22
74594;BME280;63097;51.872;4.460;2023-04-03T05:46:39;103358.75;;;1.89;85.27
74594;BME280;63097;51.872;4.460;2023-04-03T05:49:05;103361.81;;;1.96;84.89
74594;BME280;63097;51.872;4.460;2023-04-03T05:51:34;103360.75;;;2.08;84.41
74594;BME280;63097;51.872;4.460;2023-04-03T05:54:05;103354.81;;;2.03;84.52
74594;BME280;63097;51.872;4.460;2023-04-03T05:56:32;103362.63;;;2.08;84.40
74594;BME280;63097;51.872;4.460;2023-04-03T05:58:57;103360.22;;;2.14;83.81
74594;BME280;63097;51.872;4.460;2023-04-03T06:01:22;103358.88;;;2.09;84.28
74594;BME280;63097;51.872;4.460;2023-04-03T06:03:48;103363.22;;;2.11;84.11
74594;BME280;63097;51.872;4.460;2023-04-03T06:06:13;103366.31;;;2.18;83.65
74594;BME280;63097;51.872;4.460;2023-04-03T06:08:39;103377.19;;;2.29;83.19
74594;BME280;63097;51.872;4.460;2023-04-03T06:11:04;103366.94;;;2.31;83.36
74594;BME280;63097;51.872;4.460;2023-04-03T06:13:29;103383.59;;;2.39;83.01
74594;BME280;63097;51.872;4.460;2023-04-03T06:15:54;103377.53;;;2.45;82.72
74594;BME280;63097;51.872;4.460;2023-04-03T06:18:20;103381.16;;;2.45;83.09
74594;BME280;63097;51.872;4.460;2023-04-03T06:20:45;103381.91;;;2.57;82.24
74594;BME280;63097;51.872;4.460;2023-04-03T06:23:10;103377.63;;;2.73;82.01
74594;BME280;63097;51.872;4.460;2023-04-03T06:25:36;103376.78;;;2.82;81.82
74594;BME280;63097;51.872;4.460;2023-04-03T06:28:01;103380.00;;;2.97;81.05
74594;BME280;63097;51.872;4.460;2023-04-03T06:30:26;103381.16;;;3.04;80.19
74594;BME280;63097;51.872;4.460;2023-04-03T06:32:52;103386.41;;;3.26;80.00
74594;BME280;63097;51.872;4.460;2023-04-03T06:35:17;103385.13;;;3.30;79.62
74594;BME280;63097;51.872;4.460;2023-04-03T06:37:43;103379.31;;;3.43;78.50
74594;BME280;63097;51.872;4.460;2023-04-03T06:40:18;103387.84;;;3.68;77.71
74594;BME280;63097;51.872;4.460;2023-04-03T06:42:45;103391.34;;;3.61;78.11
74594;BME280;63097;51.872;4.460;2023-04-03T06:45:11;103387.69;;;3.79;78.61
74594;BME280;63097;51.872;4.460;2023-04-03T06:47:36;103383.78;;;3.91;77.50
74594;BME280;63097;51.872;4.460;2023-04-03T06:50:01;103382.28;;;4.06;77.30
74594;BME280;63097;51.872;4.460;2023-04-03T06:52:27;103386.31;;;4.22;76.23
74594;BME280;63097;51.872;4.460;2023-04-03T06:54:52;103377.44;;;4.37;75.61
74594;BME280;63097;51.872;4.460;2023-04-03T06:57:17;103383.47;;;4.50;74.63
74594;BME280;63097;51.872;4.460;2023-04-03T06:59:43;103390.47;;;4.72;74.08
74594;BME280;63097;51.872;4.460;2023-04-03T07:02:09;103392.19;;;4.73;72.63
74594;BME280;63097;51.872;4.460;2023-04-03T07:04:36;103394.34;;;4.79;72.17
74594;BME280;63097;51.872;4.460;2023-04-03T07:07:01;103404.13;;;4.91;71.74
74594;BME280;63097;51.872;4.460;2023-04-03T07:09:27;103394.78;;;4.74;70.68
74594;BME280;63097;51.872;4.460;2023-04-03T07:11:52;103393.41;;;4.88;70.30
74594;BME280;63097;51.872;4.460;2023-04-03T07:14:17;103397.00;;;4.98;70.01
74594;BME280;63097;51.872;4.460;2023-04-03T07:16:43;103410.19;;;4.94;69.98
74594;BME280;63097;51.872;4.460;2023-04-03T07:19:08;103406.56;;;5.03;70.18
74594;BME280;63097;51.872;4.460;2023-04-03T07:21:33;103413.03;;;4.85;70.89
74594;BME280;63097;51.872;4.460;2023-04-03T07:23:59;103408.63;;;5.19;69.70
74594;BME280;63097;51.872;4.460;2023-04-03T07:26:24;103416.28;;;5.43;69.16
74594;BME280;63097;51.872;4.460;2023-04-03T07:28:49;103418.97;;;5.52;68.24
74594;BME280;63097;51.872;4.460;2023-04-03T07:31:15;103417.78;;;5.37;67.99
74594;BME280;63097;51.872;4.460;2023-04-03T07:33:41;103415.19;;;5.36;67.50
74594;BME280;63097;51.872;4.460;2023-04-03T07:36:09;103418.88;;;5.44;67.80
74594;BME280;63097;51.872;4.460;2023-04-03T07:38:35;103415.81;;;5.47;67.19
74594;BME280;63097;51.872;4.460;2023-04-03T07:41:01;103421.19;;;5.49;66.92
74594;BME280;63097;51.872;4.460;2023-04-03T07:43:27;103416.53;;;5.49;66.65
74594;BME280;63097;51.872;4.460;2023-04-03T07:45:52;103421.34;;;5.47;67.36
74594;BME280;63097;51.872;4.460;2023-04-03T07:48:22;103430.50;;;5.83;66.33
74594;BME280;63097;51.872;4.460;2023-04-03T07:50:48;103433.94;;;6.02;66.82
74594;BME280;63097;51.872;4.460;2023-04-03T07:53:14;103443.53;;;5.73;65.86
74594;BME280;63097;51.872;4.460;2023-04-03T07:55:39;103436.78;;;6.10;66.11
74594;BME280;63097;51.872;4.460;2023-04-03T07:58:05;103441.69;;;6.42;63.91
74594;BME280;63097;51.872;4.460;2023-04-03T08:00:30;103444.09;;;6.37;63.94
74594;BME280;63097;51.872;4.460;2023-04-03T08:02:55;103442.28;;;6.54;63.54
74594;BME280;63097;51.872;4.460;2023-04-03T08:05:21;103441.72;;;6.50;63.58
74594;BME280;63097;51.872;4.460;2023-04-03T08:07:47;103436.13;;;7.01;62.57
74594;BME280;63097;51.872;4.460;2023-04-03T08:10:13;103436.56;;;7.23;61.88
74594;BME280;63097;51.872;4.460;2023-04-03T08:12:39;103438.53;;;6.96;61.45
74594;BME280;63097;51.872;4.460;2023-04-03T08:15:04;103440.38;;;7.30;62.20
74594;BME280;63097;51.872;4.460;2023-04-03T08:17:30;103439.06;;;7.50;60.49
74594;BME280;63097;51.872;4.460;2023-04-03T08:19:55;103442.03;;;7.64;60.25
74594;BME280;63097;51.872;4.460;2023-04-03T08:22:20;103446.88;;;7.54;59.47
74594;BME280;63097;51.872;4.460;2023-04-03T08:24:46;103443.88;;;7.32;59.02
74594;BME280;63097;51.872;4.460;2023-04-03T08:27:11;103451.97;;;7.25;59.33
74594;BME280;63097;51.872;4.460;2023-04-03T08:29:36;103455.72;;;7.58;58.79
74594;BME280;63097;51.872;4.460;2023-04-03T08:32:02;103455.56;;;7.75;57.55
74594;BME280;63097;51.872;4.460;2023-04-03T08:34:27;103456.09;;;7.87;57.19
74594;BME280;63097;51.872;4.460;2023-04-03T08:36:52;103464.84;;;7.58;57.55
74594;BME280;63097;51.872;4.460;2023-04-03T08:39:18;103463.66;;;7.61;56.83
74594;BME280;63097;51.872;4.460;2023-04-03T08:41:44;103459.50;;;7.49;58.12
74594;BME280;63097;51.872;4.460;2023-04-03T08:49:31;103446.56;;;7.89;57.60
74594;BME280;63097;51.872;4.460;2023-04-03T08:51:59;103448.97;;;8.00;56.45
74594;BME280;63097;51.872;4.460;2023-04-03T08:57:13;103443.66;;;8.31;54.78
74594;BME280;63097;51.872;4.460;2023-04-03T08:59:39;103450.22;;;8.38;55.01
74594;BME280;63097;51.872;4.460;2023-04-03T09:02:21;103445.63;;;8.77;53.78
74594;BME280;63097;51.872;4.460;2023-04-03T09:04:48;103447.19;;;8.80;52.24
74594;BME280;63097;51.872;4.460;2023-04-03T09:07:25;103451.75;;;8.49;52.45
74594;BME280;63097;51.872;4.460;2023-04-03T09:09:56;103443.06;;;8.68;50.54
74594;BME280;63097;51.872;4.460;2023-04-03T09:12:33;103450.44;;;8.91;50.20
74594;BME280;63097;51.872;4.460;2023-04-03T09:15:21;103446.63;;;9.31;48.85
74594;BME280;63097;51.872;4.460;2023-04-03T09:25:51;103440.63;;;9.73;45.29
74594;BME280;63097;51.872;4.460;2023-04-03T09:28:19;103440.75;;;10.02;44.58
74594;BME280;63097;51.872;4.460;2023-04-03T09:30:44;103443.16;;;10.28;42.71
74594;BME280;63097;51.872;4.460;2023-04-03T09:33:10;103442.75;;;9.93;41.85
74594;BME280;63097;51.872;4.460;2023-04-03T09:35:37;103445.78;;;9.61;42.50
74594;BME280;63097;51.872;4.460;2023-04-03T09:40:40;103437.94;;;9.65;42.17
74594;BME280;63097;51.872;4.460;2023-04-03T09:43:31;103446.06;;;9.66;41.11
74594;BME280;63097;51.872;4.460;2023-04-03T09:48:56;103438.78;;;9.88;41.13
74594;BME280;63097;51.872;4.460;2023-04-03T09:51:25;103431.13;;;9.90;39.31
74594;BME280;63097;51.872;4.460;2023-04-03T09:53:51;103432.66;;;9.70;39.64
74594;BME280;63097;51.872;4.460;2023-04-03T09:58:44;103416.81;;;10.24;36.78
74594;BME280;63097;51.872;4.460;2023-04-03T10:04:04;103409.72;;;10.50;37.38
74594;BME280;63097;51.872;4.460;2023-04-03T10:06:32;103412.09;;;10.39;36.49
74594;BME280;63097;51.872;4.460;2023-04-03T10:09:14;103410.97;;;10.62;36.86
74594;BME280;63097;51.872;4.460;2023-04-03T10:12:07;103414.53;;;11.00;35.44
74594;BME280;63097;51.872;4.460;2023-04-03T10:14:34;103412.44;;;11.38;35.82
74594;BME280;63097;51.872;4.460;2023-04-03T10:17:13;103410.59;;;11.45;34.08
74594;BME280;63097;51.872;4.460;2023-04-03T10:20:05;103407.28;;;12.12;32.05
74594;BME280;63097;51.872;4.460;2023-04-03T10:27:55;103404.94;;;11.88;31.25
74594;BME280;63097;51.872;4.460;2023-04-03T10:30:34;103406.09;;;11.79;30.03
74594;BME280;63097;51.872;4.460;2023-04-03T10:46:49;103361.44;;;13.37;29.24
74594;BME280;63097;51.872;4.460;2023-04-03T10:49:42;103371.06;;;13.22;29.79
74594;BME280;63097;51.872;4.460;2023-04-03T10:52:31;103364.72;;;13.00;25.49
74594;BME280;63097;51.872;4.460;2023-04-03T10:55:29;103383.72;;;13.78;23.08
74594;BME280;63097;51.872;4.460;2023-04-03T10:57:56;103375.34;;;13.18;21.67
74594;BME280;63097;51.872;4.460;2023-04-03T11:00:28;103370.31;;;13.47;22.45
74594;BME280;63097;51.872;4.460;2023-04-03T11:02:57;103392.09;;;13.78;21.47
74594;BME280;63097;51.872;4.460;2023-04-03T11:05:35;103382.81;;;13.04;22.37
74594;BME280;63097;51.872;4.460;2023-04-03T11:08:13;103382.69;;;13.25;21.33
74594;BME280;63097;51.872;4.460;2023-04-03T11:10:45;103381.56;;;12.79;21.27
74594;BME280;63097;51.872;4.460;2023-04-03T11:13:15;103378.59;;;13.15;21.29
74594;BME280;63097;51.872;4.460;2023-04-03T11:15:41;103373.81;;;13.88;22.12
74594;BME280;63097;51.872;4.460;2023-04-03T11:18:17;103371.47;;;13.79;24.53
74594;BME280;63097;51.872;4.460;2023-04-03T11:20:56;103383.03;;;13.63;25.40
74594;BME280;63097;51.872;4.460;2023-04-03T11:23:29;103369.47;;;13.60;24.64
74594;BME280;63097;51.872;4.460;2023-04-03T11:26:05;103370.19;;;14.27;23.96
74594;BME280;63097;51.872;4.460;2023-04-03T11:28:32;103371.66;;;14.10;21.13
74594;BME280;63097;51.872;4.460;2023-04-03T11:31:15;103352.53;;;14.27;22.17
74594;BME280;63097;51.872;4.460;2023-04-03T11:38:47;103347.13;;;14.05;22.58
74594;BME280;63097;51.872;4.460;2023-04-03T11:41:14;103341.06;;;14.54;22.73
74594;BME280;63097;51.872;4.460;2023-04-03T11:44:03;103350.78;;;14.12;22.90
74594;BME280;63097;51.872;4.460;2023-04-03T11:46:52;103334.59;;;14.60;20.74
74594;BME280;63097;51.872;4.460;2023-04-03T11:50:22;103336.13;;;14.56;21.99
74594;BME280;63097;51.872;4.460;2023-04-03T12:16:06;103305.25;;;14.76;23.63
74594;BME280;63097;51.872;4.460;2023-04-03T12:21:17;103293.38;;;16.11;23.39
74594;BME280;63097;51.872;4.460;2023-04-03T12:26:26;103292.34;;;15.81;23.38
74594;BME280;63097;51.872;4.460;2023-04-03T12:28:53;103282.31;;;16.95;21.63
74594;BME280;63097;51.872;4.460;2023-04-03T12:31:19;103290.66;;;17.32;21.59
74594;BME280;63097;51.872;4.460;2023-04-03T12:39:33;103297.47;;;16.58;20.85
74594;BME280;63097;51.872;4.460;2023-04-03T12:45:08;103275.13;;;15.78;23.71
74594;BME280;63097;51.872;4.460;2023-04-03T12:47:41;103274.50;;;16.79;22.46
74594;BME280;63097;51.872;4.460;2023-04-03T12:50:32;103274.53;;;17.09;22.57
74594;BME280;63097;51.872;4.460;2023-04-03T12:53:28;103259.91;;;16.53;22.76
74594;BME280;63097;51.872;4.460;2023-04-03T12:58:45;103255.59;;;17.46;21.72
74594;BME280;63097;51.872;4.460;2023-04-03T13:01:16;103250.81;;;16.87;23.58
74594;BME280;63097;51.872;4.460;2023-04-03T13:03:44;103261.53;;;17.26;23.01
74594;BME280;63097;51.872;4.460;2023-04-03T13:06:18;103250.91;;;16.98;21.73
74594;BME280;63097;51.872;4.460;2023-04-03T13:08:51;103251.69;;;16.33;23.36
74594;BME280;63097;51.872;4.460;2023-04-03T13:11:17;103250.91;;;17.40;22.66
74594;BME280;63097;51.872;4.460;2023-04-03T13:14:02;103245.38;;;16.92;22.90
74594;BME280;63097;51.872;4.460;2023-04-03T13:16:27;103247.59;;;17.31;23.51
74594;BME280;63097;51.872;4.460;2023-04-03T13:18:54;103250.16;;;17.62;22.89
74594;BME280;63097;51.872;4.460;2023-04-03T13:21:22;103241.59;;;17.57;22.15
74594;BME280;63097;51.872;4.460;2023-04-03T13:23:51;103244.78;;;19.04;21.55
74594;BME280;63097;51.872;4.460;2023-04-03T13:26:20;103241.38;;;19.02;21.01
74594;BME280;63097;51.872;4.460;2023-04-03T13:28:46;103243.72;;;18.54;21.99
74594;BME280;63097;51.872;4.460;2023-04-03T13:33:37;103238.53;;;18.74;22.99
74594;BME280;63097;51.872;4.460;2023-04-03T13:36:16;103237.84;;;18.21;22.30
74594;BME280;63097;51.872;4.460;2023-04-03T13:38:43;103248.16;;;17.92;22.43
74594;BME280;63097;51.872;4.460;2023-04-03T13:41:30;103249.53;;;17.49;22.31
74594;BME280;63097;51.872;4.460;2023-04-03T13:43:56;103254.38;;;18.06;21.82
74594;BME280;63097;51.872;4.460;2023-04-03T13:46:27;103248.53;;;17.25;22.71
74594;BME280;63097;51.872;4.460;2023-04-03T13:48:55;103257.97;;;17.49;22.87
74594;BME280;63097;51.872;4.460;2023-04-03T13:51:24;103246.63;;;17.67;21.99
74594;BME280;63097;51.872;4.460;2023-04-03T13:53:55;103236.97;;;18.21;22.54
74594;BME280;63097;51.872;4.460;2023-04-03T13:56:32;103236.13;;;17.97;21.98
74594;BME280;63097;51.872;4.460;2023-04-03T14:04:20;103224.97;;;17.56;24.21
74594;BME280;63097;51.872;4.460;2023-04-03T14:06:47;103228.53;;;18.32;22.55
74594;BME280;63097;51.872;4.460;2023-04-03T14:09:13;103208.19;;;18.19;21.90
74594;BME280;63097;51.872;4.460;2023-04-03T14:11:39;103215.69;;;17.90;22.06
74594;BME280;63097;51.872;4.460;2023-04-03T14:14:13;103202.59;;;17.95;22.70
74594;BME280;63097;51.872;4.460;2023-04-03T14:16:42;103202.84;;;19.53;21.21
74594;BME280;63097;51.872;4.460;2023-04-03T14:19:19;103202.47;;;18.76;21.63
74594;BME280;63097;51.872;4.460;2023-04-03T14:21:46;103192.78;;;17.63;22.21
74594;BME280;63097;51.872;4.460;2023-04-03T14:24:11;103188.84;;;18.22;22.28
74594;BME280;63097;51.872;4.460;2023-04-03T14:26:37;103184.81;;;19.37;20.38
74594;BME280;63097;51.872;4.460;2023-04-03T14:29:02;103176.88;;;19.23;20.22
74594;BME280;63097;51.872;4.460;2023-04-03T14:31:28;103183.72;;;18.70;21.50
74594;BME280;63097;51.872;4.460;2023-04-03T14:33:53;103190.69;;;17.59;21.89
74594;BME280;63097;51.872;4.460;2023-04-03T14:36:23;103183.25;;;19.01;20.18
74594;BME280;63097;51.872;4.460;2023-04-03T14:38:50;103180.38;;;18.85;20.44
74594;BME280;63097;51.872;4.460;2023-04-03T14:41:18;103178.91;;;18.43;20.54
74594;BME280;63097;51.872;4.460;2023-04-03T14:43:45;103170.63;;;19.21;20.43
74594;BME280;63097;51.872;4.460;2023-04-03T14:46:14;103176.34;;;19.37;21.20